Terminal Aerodrome Forecast
Issued by NWS Austin/San Antonio, TX

Home | Current Version | Previous Version | Text Only | Print | Product List | Glossary On
Versions: 1 2 3 4 5 6 7 8 9 10 11 12 13 14 15 16 17 18 19 20 21 22 23 24 25
000
FTUS44 KEWX 210525
TAFSAT
TAF
KSAT 210525Z 2106/2212 15003KT P6SM OVC150
     FM211400 12011KT P6SM BKN025 BKN150
     FM211600 13011KT P6SM OVC035
     FM212300 13010KT P6SM BKN025 BKN150
     FM220500 14008KT P6SM OVC015=

USA.gov is the U.S. government's official web portal to all federal, state and local government web resources and services.